ホノルル の空港の天気 - METARとTAF

ホノルル国際空港 ( PHNL / HNL ) - アメリカ合衆国 ハワイ州ホノルル
飛行場実況気象(Metar)
観測時間09/21 10:53 HST (09/21 20:53 UTC)
風向・風速北東 8m/s 瞬間風速12m/s
視程10km以上
天気現象
少しの雲 雲底高度 760m
全天の4割程度の雲 雲底高度 1520m
全天の4割程度の雲 雲底高度 1980m
気温31.1℃
湿度45%
気圧1017.4hPa
METARPHNL 212053Z 05016G23KT 10SM FEW025 SCT050 SCT065 31/18 A3005 RMK AO2 SLP174 T03110178 50004
過去の天気等 Google飛行場航空写真 Wunderground天気予報

過去48時間のMETAR

飛行場予報(TAF)
発表時間: 9/21 11:08 HST (9/21 21:08 UTC)
予報対象時間: 21日11時 HST ~ 22日14時 HST
風向・風速東北東 8m/s 瞬間風速 12m/s
視程10km以上
少しの雲 雲底高度 760m
全天の4割程度の雲 雲底高度 1,520m
21日19時 HST から
風向・風速東北東 5m/s
視程10km以上
天気現象周辺でしゅう雨
少しの雲 雲底高度 760m
全天の4割程度の雲 雲底高度 1,520m
22日9時 HST から
風向・風速東北東 8m/s 瞬間風速 12m/s
視程10km以上
少しの雲 雲底高度 760m
全天の4割程度の雲 雲底高度 1,520m
PHNL 212108Z 2121/2224 06016G24KT P6SM FEW025 SCT050
FM220500 06010KT P6SM VCSH FEW025 SCT050
FM221900 06015G23KT P6SM FEW025 SCT050